Lac La Biche, Alberta

Conditions des dernières 24 heures

Ce tableau est un sommaire des conditions météo couvrant les dernières 24 heures. Ce sommaire inclut les paramètres suivants: température, humidité, point de rosée, direction et vitesse du vent, pression barométrique, facteur de refroidissement éolien ou indice humidex.
Date / Heure
(HAR)
Conditions Temp (°C) Humidite (%) Point de rose (°C) Vent (km/h) Pression (kPa) Vis (km) Refr. éolien
19 avril 2014
8:00 N.D. 0 90 -2 SO 11 101,1 N.D. -4
7:00 N.D. -1 97 -1 OSO 3 101,2 N.D. -2
6:00 N.D. -1 97 -1 SSO 3 101,2 N.D. -2
5:00 N.D. -1 97 -1 S 4 101,2 N.D. -2
4:00 N.D. -1 96 -1 SSO 8 101,1 N.D. -3
3:00 N.D. -1 96 -1 SSE 2 101,2 N.D. -1
2:00 N.D. 0 96 -1 SSE 2 101,2 N.D. -1
1:00 N.D. 0 96 -1 SSO 3 101,2 N.D. -1
0:00 N.D. 0 95 -1 SSO 3 101,2 N.D. -1
18 avril 2014
23:00 N.D. 0 93 -1 SSE 2 101,2 N.D. -1
22:00 N.D. 0 92 -1 SSE 3 101,2 N.D. -1
21:00 N.D. 0 94 -1 SE 5 101,2 N.D. *
20:00 N.D. 0 95 0 ESE 3 101,1 N.D. *
19:00 N.D. 1   91 -1 ESE 4 101,1 N.D. *
18:00 N.D. 1   81 -2 SE 2 101,1 N.D. *
17:00 N.D. 1   83 -2 SE 2 101,1 N.D. *
16:00 N.D. 1   86 -1 NE 4 101,0 N.D. *
15:00 N.D. 0 85 -2 ENE 5 101,0 N.D. *
14:00 N.D. 0 86 -2 ENE 10 101,0 N.D. *
13:00 N.D. 0 87 -2 ENE 9 101,0 N.D. -3
12:00 N.D. 0 83 -3 E 7 101,0 N.D. -3
11:00 N.D. -1 81 -4 E 9 101,0 N.D. -4
10:00 N.D. -1 88 -3 E 9 101,0 N.D. -5
9:00 N.D. -2   91 -3 E 7 101,0 N.D. -5
8:00 N.D. -2   94 -3 ENE 9 101,0 N.D. -6
N.D.
non disponible
 ↑ 
température la plus haute
 ↓ 
température la plus basse
*
Valeur non significative.

Si vous désirez plus de données historiques sur les conditions météo, s.v.p. visitez Données climatologiques en ligne.